createdAt,value
2018-04-11T00:00:05.699Z,87.60
2018-04-11T00:02:33.332Z,87.60
2018-04-11T00:05:01.734Z,87.50
2018-04-11T00:07:29.355Z,87.50
2018-04-11T00:09:56.987Z,87.50
2018-04-11T00:12:24.615Z,87.40
2018-04-11T00:14:53.012Z,86.80
2018-04-11T00:17:20.656Z,86.60
2018-04-11T00:19:49.779Z,86.70
2018-04-11T00:22:17.415Z,86.70
2018-04-11T00:24:45.047Z,86.60
2018-04-11T00:27:12.679Z,86.30
2018-04-11T00:29:40.310Z,86.20
2018-04-11T00:32:07.983Z,86.00
2018-04-11T00:34:35.610Z,85.80
2018-04-11T00:37:03.238Z,86.10
2018-04-11T00:39:30.875Z,85.80
2018-04-11T00:41:58.499Z,85.40
2018-04-11T00:44:26.132Z,85.00
2018-04-11T00:46:53.907Z,85.20
2018-04-11T00:49:21.531Z,85.40
2018-04-11T00:51:49.167Z,86.10
2018-04-11T00:54:16.788Z,85.70
2018-04-11T00:56:44.419Z,86.30
2018-04-11T00:59:12.047Z,86.10
2018-04-11T01:01:39.679Z,86.30
2018-04-11T01:04:08.083Z,86.60
2018-04-11T01:06:35.710Z,86.60
2018-04-11T01:09:03.335Z,86.80
2018-04-11T01:11:30.962Z,86.70
2018-04-11T01:13:59.439Z,87.10
2018-04-11T01:16:27.062Z,87.10
2018-04-11T01:18:54.694Z,87.30
2018-04-11T01:21:22.323Z,87.50
2018-04-11T01:23:49.955Z,86.90
2018-04-11T01:26:17.579Z,87.10
2018-04-11T01:28:45.215Z,88.10
2018-04-11T01:31:12.841Z,88.00
2018-04-11T01:33:40.459Z,88.10
2018-04-11T01:39:00.456Z,87.50
2018-04-11T01:41:28.079Z,87.50
2018-04-11T01:43:55.703Z,87.30
2018-04-11T01:46:24.103Z,87.50
2018-04-11T01:48:51.730Z,87.30
2018-04-11T01:51:19.359Z,87.10
2018-04-11T01:53:46.991Z,86.40
2018-04-11T01:56:14.627Z,86.40
2018-04-11T01:58:42.247Z,86.50
2018-04-11T02:01:09.879Z,86.60
2018-04-11T02:03:38.267Z,87.00
2018-04-11T02:06:06.668Z,87.00
2018-04-11T02:08:34.303Z,86.80
2018-04-11T02:11:01.930Z,87.10
2018-04-11T02:13:29.551Z,87.70
2018-04-11T02:15:57.951Z,87.90
2018-04-11T02:18:25.579Z,87.90
2018-04-11T02:20:53.202Z,88.10
2018-04-11T02:23:20.838Z,88.60
2018-04-11T02:25:51.851Z,88.90
2018-04-11T02:28:19.483Z,88.70
2018-04-11T02:30:47.108Z,88.80
2018-04-11T02:33:14.739Z,88.40
2018-04-11T02:35:42.367Z,89.20
2018-04-11T02:38:09.999Z,88.40
2018-04-11T02:40:38.387Z,88.60
2018-04-11T02:43:06.788Z,88.70
2018-04-11T02:45:34.415Z,88.70
2018-04-11T02:48:02.044Z,88.80
2018-04-11T02:50:29.666Z,89.20
2018-04-11T02:52:58.063Z,89.80
2018-04-11T02:55:25.683Z,89.80
2018-04-11T02:57:53.307Z,90.00
2018-04-11T03:00:21.215Z,89.60
2018-04-11T03:02:48.842Z,89.30
2018-04-11T03:05:16.470Z,89.60
2018-04-11T03:07:44.102Z,90.00
2018-04-11T03:10:11.732Z,90.00
2018-04-11T03:12:39.361Z,90.00
2018-04-11T03:15:06.975Z,90.10
2018-04-11T03:17:34.603Z,90.10
2018-04-11T03:20:02.524Z,90.00
2018-04-11T03:22:30.151Z,90.20
2018-04-11T03:24:58.551Z,90.20
2018-04-11T03:27:26.184Z,90.20
2018-04-11T03:29:53.815Z,90.40
2018-04-11T03:32:21.456Z,90.40
2018-04-11T03:34:49.071Z,90.50
2018-04-11T03:37:16.719Z,90.60
2018-04-11T03:39:44.355Z,90.50
2018-04-11T03:42:11.979Z,90.40
2018-04-11T03:44:39.611Z,90.60
2018-04-11T03:47:07.245Z,90.70
2018-04-11T03:49:34.866Z,90.50
2018-04-11T03:52:02.493Z,90.40
2018-04-11T03:54:30.114Z,90.60
2018-04-11T03:56:57.744Z,90.40
2018-04-11T03:59:25.392Z,90.50
2018-04-11T04:01:53.008Z,90.60
2018-04-11T04:04:20.639Z,90.90
2018-04-11T04:06:48.270Z,91.40
2018-04-11T04:09:15.891Z,91.50
2018-04-11T04:11:43.519Z,91.60
2018-04-11T04:14:23.039Z,91.60
2018-04-11T04:17:02.568Z,91.60
2018-04-11T04:19:42.823Z,91.70
2018-04-11T04:22:11.206Z,91.50
2018-04-11T04:24:39.601Z,91.60
2018-04-11T04:27:07.236Z,91.60
2018-04-11T04:29:34.863Z,91.40
2018-04-11T04:32:04.208Z,91.30
2018-04-11T04:34:32.612Z,91.60
2018-04-11T04:37:01.014Z,91.40
2018-04-11T04:39:28.634Z,91.40
2018-04-11T04:41:56.267Z,91.30
2018-04-11T04:44:34.783Z,91.40
2018-04-11T04:47:02.413Z,91.20
2018-04-11T04:49:30.040Z,91.10
2018-04-11T04:51:59.171Z,90.60
2018-04-11T04:54:33.585Z,90.60
2018-04-11T04:57:01.175Z,90.50
2018-04-11T04:59:28.803Z,90.40
2018-04-11T05:01:56.441Z,90.10
2018-04-11T05:04:24.066Z,90.10
2018-04-11T05:06:51.691Z,90.50
2018-04-11T05:09:19.327Z,90.70
2018-04-11T05:11:46.960Z,90.80
2018-04-11T05:14:14.640Z,91.20
2018-04-11T05:16:42.220Z,90.80
2018-04-11T05:19:09.891Z,90.80
2018-04-11T05:21:37.522Z,90.40
2018-04-11T05:24:05.142Z,90.30
2018-04-11T05:26:32.777Z,90.60
2018-04-11T05:29:00.408Z,90.60
2018-04-11T05:31:28.803Z,90.60
2018-04-11T05:33:56.203Z,90.60
2018-04-11T05:36:29.891Z,90.50
2018-04-11T05:39:02.359Z,90.80
2018-04-11T05:41:29.980Z,90.90
2018-04-11T05:43:57.598Z,90.70
2018-04-11T05:46:25.631Z,90.80
2018-04-11T05:48:54.031Z,90.40
2018-04-11T05:51:21.674Z,90.40
2018-04-11T05:53:49.661Z,90.50
2018-04-11T05:56:17.288Z,90.60
2018-04-11T05:58:44.910Z,90.90
2018-04-11T06:01:12.539Z,90.50
2018-04-11T06:03:40.171Z,91.00
2018-04-11T06:06:07.795Z,90.80
2018-04-11T06:08:36.191Z,90.80
2018-04-11T06:11:03.818Z,90.80
2018-04-11T06:13:31.442Z,91.10
2018-04-11T06:15:59.077Z,91.20
2018-04-11T06:18:26.707Z,91.60
2018-04-11T06:20:54.334Z,91.50
2018-04-11T06:23:21.955Z,91.70
2018-04-11T06:25:49.589Z,91.80
2018-04-11T06:28:17.204Z,91.80
2018-04-11T06:30:45.606Z,91.30
2018-04-11T06:33:13.235Z,91.30
2018-04-11T06:35:40.862Z,90.90
2018-04-11T06:38:08.546Z,90.90
2018-04-11T06:40:36.166Z,90.60
2018-04-11T06:43:03.803Z,91.20
2018-04-11T06:45:31.428Z,91.30
2018-04-11T06:47:59.058Z,91.60
2018-04-11T06:50:26.683Z,91.60
2018-04-11T06:52:54.322Z,91.50
2018-04-11T06:55:21.943Z,91.70
2018-04-11T06:57:50.343Z,92.30
2018-04-11T07:00:18.174Z,91.90
2018-04-11T07:02:45.799Z,91.80
2018-04-11T07:05:13.442Z,91.80
2018-04-11T07:07:41.071Z,91.70
2018-04-11T07:10:08.907Z,92.10
2018-04-11T07:12:36.535Z,92.00
2018-04-11T07:15:04.175Z,92.00
2018-04-11T07:17:31.794Z,92.00
2018-04-11T07:19:59.423Z,91.90
2018-04-11T07:22:27.909Z,91.80
2018-04-11T07:24:56.311Z,91.70
2018-04-11T07:27:25.103Z,91.50
2018-04-11T07:29:52.731Z,91.50
2018-04-11T07:32:20.359Z,91.50
2018-04-11T07:34:47.987Z,91.10
2018-04-11T07:37:16.387Z,91.30
2018-04-11T07:39:44.011Z,91.30
2018-04-11T07:42:11.643Z,91.50
2018-04-11T07:44:39.279Z,91.20
2018-04-11T07:47:06.910Z,91.80
2018-04-11T07:49:34.539Z,91.60
2018-04-11T07:52:02.175Z,91.20
2018-04-11T07:54:29.810Z,91.20
2018-04-11T07:56:57.435Z,91.10
2018-04-11T07:59:25.062Z,91.10
2018-04-11T08:01:53.451Z,91.20
2018-04-11T08:04:21.092Z,91.20
2018-04-11T08:06:48.728Z,91.00
2018-04-11T08:09:16.360Z,90.90
2018-04-11T08:11:43.986Z,90.30
2018-04-11T08:14:11.672Z,90.40
2018-04-11T08:16:40.076Z,90.30
2018-04-11T08:19:07.707Z,90.40
2018-04-11T08:21:35.343Z,90.00
2018-04-11T08:24:02.970Z,89.50
2018-04-11T08:26:30.603Z,89.60
2018-04-11T08:28:58.264Z,89.80
2018-04-11T08:31:25.899Z,90.20
2018-04-11T08:33:53.535Z,89.20
2018-04-11T08:36:21.168Z,88.20
2018-04-11T08:38:48.796Z,87.90
2018-04-11T08:41:16.440Z,88.80
2018-04-11T08:43:44.071Z,87.30
2018-04-11T08:46:11.695Z,86.70
2018-04-11T08:48:39.339Z,88.40
2018-04-11T08:51:06.964Z,86.50
2018-04-11T08:53:34.591Z,86.80
2018-04-11T08:56:02.231Z,85.10
2018-04-11T08:58:29.859Z,84.30
2018-04-11T09:00:57.487Z,84.50
2018-04-11T09:03:25.116Z,85.00
2018-04-11T09:05:53.510Z,83.60
2018-04-11T09:08:21.131Z,83.60
2018-04-11T09:10:48.755Z,82.30
2018-04-11T09:13:16.382Z,82.60
2018-04-11T09:15:44.011Z,82.70
2018-04-11T09:18:11.636Z,81.30
2018-04-11T09:20:40.024Z,75.30
2018-04-11T09:23:07.652Z,75.20
2018-04-11T09:25:35.279Z,74.60
2018-04-11T09:28:02.910Z,75.80
2018-04-11T09:30:30.541Z,76.00
2018-04-11T09:32:58.206Z,76.50
2018-04-11T09:35:25.791Z,77.40
2018-04-11T09:37:53.419Z,78.50
2018-04-11T09:40:21.051Z,78.60
2018-04-11T09:42:48.674Z,79.70
2018-04-11T09:45:16.307Z,76.70
2018-04-11T09:47:43.935Z,75.70
2018-04-11T09:50:11.568Z,76.40
2018-04-11T09:52:39.203Z,75.50
2018-04-11T09:55:06.827Z,75.80
2018-04-11T09:57:35.227Z,76.70
2018-04-11T10:00:02.970Z,76.70
2018-04-11T10:02:30.590Z,77.80
2018-04-11T10:04:58.381Z,78.80
2018-04-11T10:07:25.983Z,77.60
2018-04-11T10:09:54.446Z,79.20
2018-04-11T10:12:22.136Z,79.10
2018-04-11T10:14:49.793Z,78.20
2018-04-11T10:17:17.443Z,78.10
2018-04-11T10:19:45.160Z,76.90
2018-04-11T10:22:12.857Z,78.60
2018-04-11T10:24:40.496Z,77.30
2018-04-11T10:27:08.178Z,75.60
2018-04-11T10:29:35.847Z,75.50
2018-04-11T10:32:03.493Z,75.10
2018-04-11T10:34:31.146Z,73.40
2018-04-11T10:36:58.789Z,73.60
2018-04-11T10:39:26.438Z,73.70
2018-04-11T10:41:54.079Z,73.20
2018-04-11T10:44:21.769Z,71.90
2018-04-11T10:46:49.429Z,72.30
2018-04-11T10:49:17.108Z,72.30
2018-04-11T10:51:44.780Z,70.90
2018-04-11T10:54:12.383Z,71.10
2018-04-11T10:56:40.181Z,69.50
2018-04-11T10:59:07.826Z,67.60
2018-04-11T11:01:36.186Z,69.90
2018-04-11T11:04:04.639Z,70.00
2018-04-11T11:06:32.276Z,69.80
2018-04-11T11:08:59.945Z,69.50
2018-04-11T11:11:27.606Z,69.10
2018-04-11T11:13:55.268Z,69.00
2018-04-11T11:16:22.945Z,68.60
2018-04-11T11:18:50.595Z,68.20
2018-04-11T11:21:18.255Z,67.50
2018-04-11T11:23:46.702Z,67.60
2018-04-11T11:26:14.361Z,67.60
2018-04-11T11:28:42.025Z,66.00
2018-04-11T11:31:09.677Z,66.10
2018-04-11T11:33:37.329Z,63.60
2018-04-11T11:36:04.993Z,63.60
2018-04-11T11:38:32.651Z,62.70
2018-04-11T11:41:00.323Z,61.70
2018-04-11T11:43:27.935Z,61.70
2018-04-11T11:45:55.561Z,63.10
2018-04-11T11:48:23.179Z,62.20
2018-04-11T11:50:50.802Z,64.80
2018-04-11T11:53:18.431Z,62.10
2018-04-11T11:55:46.064Z,62.50
2018-04-11T11:58:13.693Z,62.50
2018-04-11T12:00:41.328Z,60.90
2018-04-11T12:03:08.959Z,57.70
2018-04-11T12:05:36.587Z,57.10
2018-04-11T12:08:04.213Z,56.50
2018-04-11T12:10:31.843Z,58.00
2018-04-11T12:12:59.470Z,56.40
2018-04-11T12:15:27.100Z,56.90
2018-04-11T12:17:54.727Z,57.00
2018-04-11T12:20:22.359Z,59.60
2018-04-11T12:22:49.991Z,56.80
2018-04-11T12:25:17.614Z,57.40
2018-04-11T12:27:45.247Z,57.60
2018-04-11T12:30:12.875Z,59.70
2018-04-11T12:32:40.500Z,58.80
2018-04-11T12:35:08.134Z,59.40
2018-04-11T12:37:35.767Z,58.90
2018-04-11T12:40:03.390Z,58.60
2018-04-11T12:42:31.019Z,58.40
2018-04-11T12:44:58.647Z,58.90
2018-04-11T12:47:26.276Z,60.00
2018-04-11T12:49:53.910Z,59.90
2018-04-11T12:52:21.544Z,61.00
2018-04-11T12:54:49.170Z,62.00
2018-04-11T12:57:17.569Z,62.00
2018-04-11T12:59:45.191Z,61.90
2018-04-11T13:02:12.823Z,61.20
2018-04-11T13:04:40.455Z,61.30
2018-04-11T13:07:08.848Z,63.30
2018-04-11T13:09:36.462Z,63.20
2018-04-11T13:12:04.095Z,62.50
2018-04-11T13:14:31.723Z,62.30
2018-04-11T13:16:59.342Z,63.80
2018-04-11T13:19:26.970Z,62.60
2018-04-11T13:21:54.595Z,63.60
2018-04-11T13:24:22.214Z,62.50
2018-04-11T13:26:49.842Z,62.40
2018-04-11T13:29:17.486Z,61.80
2018-04-11T13:31:45.114Z,62.40
2018-04-11T13:34:12.743Z,62.00
2018-04-11T13:36:40.384Z,61.60
2018-04-11T13:39:07.986Z,62.60
2018-04-11T13:41:36.383Z,64.10
2018-04-11T13:44:04.007Z,64.00
2018-04-11T13:46:31.628Z,63.10
2018-04-11T13:48:59.247Z,60.30
2018-04-11T13:51:26.871Z,56.70
2018-04-11T13:53:54.514Z,54.80
2018-04-11T13:56:22.946Z,55.50
2018-04-11T13:58:50.523Z,55.40
2018-04-11T14:01:18.159Z,56.80
2018-04-11T14:03:45.787Z,58.40
2018-04-11T14:06:14.188Z,59.80
2018-04-11T14:08:41.811Z,59.80
2018-04-11T14:11:09.442Z,59.40
2018-04-11T14:13:37.072Z,60.80
2018-04-11T14:16:04.753Z,59.30
2018-04-11T14:18:32.385Z,60.20
2018-04-11T14:21:00.010Z,59.70
2018-04-11T14:23:27.633Z,59.90
2018-04-11T14:25:56.073Z,62.40
2018-04-11T14:28:23.664Z,62.30
2018-04-11T14:30:52.051Z,60.80
2018-04-11T14:33:20.458Z,61.30
2018-04-11T14:35:48.082Z,61.30
2018-04-11T14:38:15.712Z,60.40
2018-04-11T14:40:43.333Z,61.20
2018-04-11T14:43:11.722Z,61.60
2018-04-11T14:45:40.119Z,62.10
2018-04-11T14:48:07.738Z,62.10
2018-04-11T14:50:35.363Z,62.60
2018-04-11T14:53:02.984Z,62.70
2018-04-11T14:55:30.607Z,61.60
2018-04-11T14:57:58.226Z,61.80
2018-04-11T15:00:25.851Z,62.30
2018-04-11T15:02:53.479Z,62.70
2018-04-11T15:05:21.859Z,62.30
2018-04-11T15:07:50.246Z,59.70
2018-04-11T15:10:18.631Z,58.40
2018-04-11T15:12:46.242Z,58.40
2018-04-11T15:15:13.863Z,57.10
2018-04-11T15:17:41.487Z,57.70
2018-04-11T15:20:09.111Z,58.70
2018-04-11T15:22:36.727Z,58.90
2018-04-11T15:25:04.342Z,59.90
2018-04-11T15:27:32.003Z,61.70
2018-04-11T15:30:00.378Z,62.20
2018-04-11T15:32:28.006Z,62.10
2018-04-11T15:34:55.615Z,64.90
2018-04-11T15:37:23.243Z,64.20
2018-04-11T15:39:50.886Z,64.00
2018-04-11T15:42:18.506Z,65.00
2018-04-11T15:44:46.126Z,63.60
2018-04-11T15:47:13.796Z,62.90
2018-04-11T15:49:41.410Z,61.00
2018-04-11T15:52:09.031Z,61.70
2018-04-11T15:54:36.651Z,62.90
2018-04-11T15:57:04.263Z,61.30
2018-04-11T15:59:31.881Z,62.30
2018-04-11T16:01:59.511Z,64.50
2018-04-11T16:04:27.895Z,66.10
2018-04-11T16:06:56.375Z,64.40
2018-04-11T16:09:24.765Z,65.30
2018-04-11T16:11:53.157Z,64.90
2018-04-11T16:14:21.526Z,62.50
2018-04-11T16:16:49.916Z,62.30
2018-04-11T16:19:18.300Z,61.80
2018-04-11T16:21:46.682Z,61.60
2018-04-11T16:24:15.074Z,60.20
2018-04-11T16:26:43.450Z,60.10
2018-04-11T16:29:11.835Z,59.20
2018-04-11T16:31:40.220Z,60.40
2018-04-11T16:34:07.855Z,60.40
2018-04-11T16:36:35.475Z,59.60
2018-04-11T16:39:03.094Z,60.30
2018-04-11T16:41:30.714Z,61.50
2018-04-11T16:43:58.330Z,60.50
2018-04-11T16:46:26.714Z,61.30
2018-04-11T16:48:54.336Z,61.20
2018-04-11T16:51:21.959Z,60.70
2018-04-11T16:53:50.347Z,61.60
2018-04-11T16:56:17.968Z,61.60
2018-04-11T16:58:45.596Z,63.00
2018-04-11T17:01:13.216Z,62.10
2018-04-11T17:03:40.841Z,62.70
2018-04-11T17:06:08.467Z,63.10
2018-04-11T17:08:36.091Z,62.40
2018-04-11T17:11:03.712Z,62.70
2018-04-11T17:13:32.095Z,63.80
2018-04-11T17:15:59.710Z,63.70
2018-04-11T17:18:27.331Z,65.40
2018-04-11T17:21:06.844Z,65.40
2018-04-11T17:23:46.510Z,64.90
2018-04-11T17:26:26.138Z,65.10
2018-04-11T17:29:06.522Z,64.90
2018-04-11T17:31:34.155Z,64.80
2018-04-11T17:34:02.539Z,67.40
2018-04-11T17:36:30.933Z,67.70
2018-04-11T17:38:59.314Z,66.30
2018-04-11T17:41:27.715Z,65.40
2018-04-11T17:43:55.337Z,65.30
2018-04-11T17:46:22.958Z,68.30
2018-04-11T17:48:50.584Z,67.80
2018-04-11T17:51:18.245Z,69.60
2018-04-11T17:53:45.906Z,70.40
2018-04-11T17:56:13.551Z,70.10
2018-04-11T17:58:41.162Z,72.40
2018-04-11T18:01:08.785Z,71.70
2018-04-11T18:03:36.407Z,71.40
2018-04-11T18:06:04.030Z,72.50
2018-04-11T18:08:31.647Z,74.30
2018-04-11T18:10:59.275Z,73.70
2018-04-11T18:13:26.894Z,73.50
2018-04-11T18:15:54.517Z,73.80
2018-04-11T18:18:22.894Z,75.20
2018-04-11T18:20:51.284Z,73.00
2018-04-11T18:23:19.669Z,75.20
2018-04-11T18:25:48.054Z,74.70
2018-04-11T18:28:16.444Z,74.70
2018-04-11T18:30:47.851Z,74.70
2018-04-11T18:33:15.467Z,76.30
2018-04-11T18:35:43.086Z,76.30
2018-04-11T18:38:10.703Z,75.20
2018-04-11T18:40:38.323Z,77.70
2018-04-11T18:43:06.707Z,77.90
2018-04-11T18:45:34.327Z,77.90
2018-04-11T18:48:02.013Z,78.20
2018-04-11T18:50:29.619Z,77.50
2018-04-11T18:52:57.276Z,78.80
2018-04-11T18:55:24.920Z,78.90
2018-04-11T18:57:52.572Z,79.70
2018-04-11T19:00:20.460Z,80.20
2018-04-11T19:02:48.083Z,80.50
2018-04-11T19:05:15.716Z,81.00
2018-04-11T19:07:44.125Z,81.00
2018-04-11T19:10:11.723Z,81.00
2018-04-11T19:12:39.354Z,80.70
2018-04-11T19:15:07.735Z,82.00
2018-04-11T19:17:36.127Z,82.00
2018-04-11T19:20:03.742Z,82.00
2018-04-11T19:22:31.424Z,82.10
2018-04-11T19:24:59.050Z,81.40
2018-04-11T19:27:26.667Z,81.80
2018-04-11T19:29:55.050Z,83.40
2018-04-11T19:32:23.451Z,82.80
2018-04-11T19:34:51.832Z,82.70
2018-04-11T19:37:20.215Z,83.80
2018-04-11T19:39:47.844Z,83.70
2018-04-11T19:42:15.464Z,83.90
2018-04-11T19:44:43.092Z,84.00
2018-04-11T19:47:10.711Z,83.50
2018-04-11T19:49:38.328Z,83.90
2018-04-11T19:52:06.721Z,84.20
2018-04-11T19:54:34.352Z,84.10
2018-04-11T19:57:01.979Z,84.20
2018-04-11T19:59:29.603Z,84.80
2018-04-11T20:01:57.228Z,85.00
2018-04-11T20:04:24.851Z,85.30
2018-04-11T20:06:53.239Z,85.90
2018-04-11T20:09:20.897Z,85.90
2018-04-11T20:11:48.563Z,86.20
2018-04-11T20:14:16.955Z,86.00
2018-04-11T20:16:44.584Z,85.90
2018-04-11T20:19:12.203Z,87.50
2018-04-11T20:21:39.835Z,87.20
2018-04-11T20:24:08.233Z,88.10
2018-04-11T20:26:36.653Z,89.20
2018-04-11T20:29:04.254Z,89.20
2018-04-11T20:31:31.883Z,88.80
2018-04-11T20:33:59.516Z,89.00
2018-04-11T20:36:27.906Z,89.60
2018-04-11T20:38:55.535Z,89.60
2018-04-11T20:41:23.154Z,89.70
2018-04-11T20:43:50.778Z,90.00
2018-04-11T20:46:18.415Z,90.00
2018-04-11T20:48:46.054Z,90.30
2018-04-11T20:51:13.675Z,90.30
2018-04-11T20:53:42.070Z,90.70
2018-04-11T20:56:10.471Z,91.00
2018-04-11T20:58:38.090Z,91.00
2018-04-11T21:01:09.139Z,90.80
2018-04-11T21:03:37.611Z,91.20
2018-04-11T21:06:05.331Z,91.10
2018-04-11T21:08:33.013Z,91.30
2018-04-11T21:11:00.982Z,91.20
2018-04-11T21:13:28.643Z,91.70
2018-04-11T21:15:56.267Z,91.70
2018-04-11T21:18:23.886Z,91.70
2018-04-11T21:20:51.511Z,91.70
2018-04-11T21:23:19.906Z,92.10
2018-04-11T21:25:47.548Z,92.10
2018-04-11T21:28:18.900Z,92.50
2018-04-11T21:30:46.522Z,92.80
2018-04-11T21:33:14.151Z,92.70
2018-04-11T21:35:42.543Z,93.00
2018-04-11T21:38:10.183Z,93.00
2018-04-11T21:40:37.807Z,93.20
2018-04-11T21:43:05.431Z,92.90
2018-04-11T21:45:33.820Z,93.00
2018-04-11T21:48:02.211Z,93.10
2018-04-11T21:50:29.847Z,93.10
2018-04-11T21:52:58.242Z,92.70
2018-04-11T21:55:26.630Z,93.20
2018-04-11T21:57:55.031Z,92.60
2018-04-11T22:00:22.682Z,92.90
2018-04-11T22:02:51.078Z,93.40
2018-04-11T22:05:18.707Z,93.30
2018-04-11T22:07:46.335Z,93.50
2018-04-11T22:10:13.959Z,93.30
2018-04-11T22:12:42.359Z,93.80
2018-04-11T22:15:10.039Z,93.80
2018-04-11T22:17:37.620Z,93.90
2018-04-11T22:20:05.248Z,93.90
2018-04-11T22:22:33.639Z,93.80
2018-04-11T22:25:01.278Z,93.70
2018-04-11T22:27:28.899Z,93.70
2018-04-11T22:29:56.534Z,93.70
2018-04-11T22:32:24.931Z,93.10
2018-04-11T22:34:52.551Z,93.10
2018-04-11T22:37:20.183Z,93.30
2018-04-11T22:39:51.214Z,93.20
2018-04-11T22:42:18.883Z,93.20
2018-04-11T22:44:47.259Z,94.00
2018-04-11T22:47:15.630Z,93.90
2018-04-11T22:49:43.264Z,93.90
2018-04-11T22:52:10.888Z,94.30
2018-04-11T22:54:38.508Z,94.30
2018-04-11T22:57:06.149Z,94.00
2018-04-11T22:59:33.775Z,94.10
2018-04-11T23:02:01.404Z,94.80
2018-04-11T23:04:29.807Z,95.40
2018-04-11T23:06:57.430Z,95.00
2018-04-11T23:09:25.069Z,95.20
2018-04-11T23:11:52.695Z,95.20
2018-04-11T23:14:21.096Z,95.00
2018-04-11T23:16:48.720Z,95.00
2018-04-11T23:19:16.353Z,95.10
2018-04-11T23:21:43.984Z,95.40
2018-04-11T23:24:11.611Z,95.40
2018-04-11T23:26:39.294Z,95.50
2018-04-11T23:29:06.887Z,95.30
2018-04-11T23:31:34.519Z,94.90
2018-04-11T23:34:02.151Z,95.20
2018-04-11T23:36:29.783Z,95.60
2018-04-11T23:38:57.419Z,95.40
2018-04-11T23:41:25.038Z,95.20
2018-04-11T23:43:52.667Z,95.00
2018-04-11T23:46:21.062Z,94.90
2018-04-11T23:48:48.686Z,94.90
2018-04-11T23:51:16.319Z,95.30
2018-04-11T23:53:43.947Z,94.90
2018-04-11T23:56:12.342Z,95.60
2018-04-11T23:58:39.976Z,95.60
